sensor_id;sensor_type;location;lat;lon;timestamp;pressure;altitude;pressure_sealevel;temperature;humidity
7026;BME280;3554;42.132;24.786;2022-10-16T00:01:14;100041.31;;;12.25;100.00
7026;BME280;3554;42.132;24.786;2022-10-16T00:03:42;100033.78;;;12.16;100.00
7026;BME280;3554;42.132;24.786;2022-10-16T00:06:10;100045.28;;;12.12;100.00
7026;BME280;3554;42.132;24.786;2022-10-16T00:08:38;100038.34;;;12.11;100.00
7026;BME280;3554;42.132;24.786;2022-10-16T00:11:08;100051.13;;;12.20;100.00
7026;BME280;3554;42.132;24.786;2022-10-16T00:13:37;100048.31;;;12.26;100.00
7026;BME280;3554;42.132;24.786;2022-10-16T00:16:05;100050.19;;;12.23;100.00
7026;BME280;3554;42.132;24.786;2022-10-16T00:18:32;100050.19;;;12.23;100.00
7026;BME280;3554;42.132;24.786;2022-10-16T00:21:02;100047.66;;;12.20;100.00
7026;BME280;3554;42.132;24.786;2022-10-16T00:23:30;100046.06;;;12.16;100.00
7026;BME280;3554;42.132;24.786;2022-10-16T00:25:58;100012.13;;;11.87;100.00
7026;BME280;3554;42.132;24.786;2022-10-16T00:28:26;100054.63;;;12.21;100.00
7026;BME280;3554;42.132;24.786;2022-10-16T00:30:53;100040.03;;;12.14;100.00
7026;BME280;3554;42.132;24.786;2022-10-16T00:33:21;100050.28;;;12.20;100.00
7026;BME280;3554;42.132;24.786;2022-10-16T00:35:48;100051.19;;;12.19;100.00
7026;BME280;3554;42.132;24.786;2022-10-16T00:38:15;100057.06;;;12.25;100.00
7026;BME280;3554;42.132;24.786;2022-10-16T00:40:42;100053.94;;;12.16;100.00
7026;BME280;3554;42.132;24.786;2022-10-16T00:43:13;100054.84;;;12.15;100.00
7026;BME280;3554;42.132;24.786;2022-10-16T00:45:42;100064.59;;;12.11;100.00
7026;BME280;3554;42.132;24.786;2022-10-16T00:48:13;100060.84;;;12.18;100.00
7026;BME280;3554;42.132;24.786;2022-10-16T00:50:40;100059.41;;;12.10;100.00
7026;BME280;3554;42.132;24.786;2022-10-16T00:53:10;100070.44;;;12.19;100.00
7026;BME280;3554;42.132;24.786;2022-10-16T00:55:37;100069.56;;;12.19;100.00
7026;BME280;3554;42.132;24.786;2022-10-16T00:58:04;100069.72;;;11.90;100.00
7026;BME280;3554;42.132;24.786;2022-10-16T01:00:31;100074.00;;;11.67;100.00
7026;BME280;3554;42.132;24.786;2022-10-16T01:03:01;100080.66;;;11.77;100.00
7026;BME280;3554;42.132;24.786;2022-10-16T01:05:32;100081.56;;;11.76;100.00
7026;BME280;3554;42.132;24.786;2022-10-16T01:08:04;100088.81;;;11.68;100.00
7026;BME280;3554;42.132;24.786;2022-10-16T01:10:38;100096.97;;;11.59;100.00
7026;BME280;3554;42.132;24.786;2022-10-16T01:13:07;100097.38;;;11.47;100.00
7026;BME280;3554;42.132;24.786;2022-10-16T01:15:37;100072.97;;;11.19;100.00
7026;BME280;3554;42.132;24.786;2022-10-16T01:18:11;100098.25;;;11.20;100.00
7026;BME280;3554;42.132;24.786;2022-10-16T01:20:44;100096.88;;;11.09;100.00
7026;BME280;3554;42.132;24.786;2022-10-16T01:23:28;100091.66;;;11.09;100.00
7026;BME280;3554;42.132;24.786;2022-10-16T01:26:15;100089.78;;;11.12;100.00
7026;BME280;3554;42.132;24.786;2022-10-16T01:28:51;100095.16;;;11.08;100.00
7026;BME280;3554;42.132;24.786;2022-10-16T01:31:22;100084.94;;;10.99;100.00
7026;BME280;3554;42.132;24.786;2022-10-16T01:33:55;100099.50;;;11.09;100.00
7026;BME280;3554;42.132;24.786;2022-10-16T01:36:29;100091.16;;;10.96;100.00
7026;BME280;3554;42.132;24.786;2022-10-16T01:39:00;100087.28;;;10.80;100.00
7026;BME280;3554;42.132;24.786;2022-10-16T01:41:31;100095.38;;;10.72;100.00
7026;BME280;3554;42.132;24.786;2022-10-16T01:44:04;100092.78;;;10.71;100.00
7026;BME280;3554;42.132;24.786;2022-10-16T01:46:34;100094.44;;;10.73;100.00
7026;BME280;3554;42.132;24.786;2022-10-16T01:49:02;100089.25;;;10.72;100.00
7026;BME280;3554;42.132;24.786;2022-10-16T01:51:30;100098.75;;;10.76;100.00
7026;BME280;3554;42.132;24.786;2022-10-16T01:53:58;100102.91;;;10.83;100.00
7026;BME280;3554;42.132;24.786;2022-10-16T01:56:28;100108.84;;;10.88;100.00
7026;BME280;3554;42.132;24.786;2022-10-16T01:58:59;100101.69;;;10.95;100.00
7026;BME280;3554;42.132;24.786;2022-10-16T02:01:31;100104.09;;;11.01;100.00
7026;BME280;3554;42.132;24.786;2022-10-16T02:04:02;100113.72;;;11.00;100.00
7026;BME280;3554;42.132;24.786;2022-10-16T02:06:31;100110.09;;;11.04;100.00
7026;BME280;3554;42.132;24.786;2022-10-16T02:08:59;100110.09;;;11.04;100.00
7026;BME280;3554;42.132;24.786;2022-10-16T02:11:25;100106.56;;;11.07;100.00
7026;BME280;3554;42.132;24.786;2022-10-16T02:13:55;100104.63;;;11.12;100.00
7026;BME280;3554;42.132;24.786;2022-10-16T02:16:34;100104.63;;;11.12;100.00
7026;BME280;3554;42.132;24.786;2022-10-16T02:19:02;100117.84;;;11.09;100.00
7026;BME280;3554;42.132;24.786;2022-10-16T02:21:33;100119.72;;;11.04;100.00
7026;BME280;3554;42.132;24.786;2022-10-16T02:24:08;100115.28;;;11.06;100.00
7026;BME280;3554;42.132;24.786;2022-10-16T02:26:42;100116.16;;;11.06;100.00
7026;BME280;3554;42.132;24.786;2022-10-16T02:29:14;100119.53;;;11.10;100.00
7026;BME280;3554;42.132;24.786;2022-10-16T02:31:47;100115.34;;;11.04;100.00
7026;BME280;3554;42.132;24.786;2022-10-16T02:34:18;100118.16;;;10.98;100.00
7026;BME280;3554;42.132;24.786;2022-10-16T02:36:48;100117.41;;;10.95;100.00
7026;BME280;3554;42.132;24.786;2022-10-16T02:39:17;100118.16;;;10.98;100.00
7026;BME280;3554;42.132;24.786;2022-10-16T02:41:44;100125.94;;;11.01;100.00
7026;BME280;3554;42.132;24.786;2022-10-16T02:44:11;100132.03;;;11.02;100.00
7026;BME280;3554;42.132;24.786;2022-10-16T02:46:38;100132.09;;;10.99;100.00
7026;BME280;3554;42.132;24.786;2022-10-16T02:49:07;100132.03;;;11.02;100.00
7026;BME280;3554;42.132;24.786;2022-10-16T02:51:33;100135.59;;;10.99;100.00
7026;BME280;3554;42.132;24.786;2022-10-16T02:54:01;100128.66;;;10.98;100.00
7026;BME280;3554;42.132;24.786;2022-10-16T02:56:28;100144.22;;;11.03;100.00
7026;BME280;3554;42.132;24.786;2022-10-16T02:58:55;100153.22;;;10.94;100.00
7026;BME280;3554;42.132;24.786;2022-10-16T03:01:22;100119.28;;;10.90;100.00
7026;BME280;3554;42.132;24.786;2022-10-16T03:03:49;100151.41;;;10.96;100.00
7026;BME280;3554;42.132;24.786;2022-10-16T03:06:18;100131.16;;;11.01;100.00
7026;BME280;3554;42.132;24.786;2022-10-16T03:08:44;100145.97;;;11.02;100.00
7026;BME280;3554;42.132;24.786;2022-10-16T03:11:11;100151.22;;;11.02;100.00
7026;BME280;3554;42.132;24.786;2022-10-16T03:13:38;100154.53;;;11.07;100.00
7026;BME280;3554;42.132;24.786;2022-10-16T03:16:05;100147.50;;;11.09;100.00
7026;BME280;3554;42.132;24.786;2022-10-16T03:18:31;100156.13;;;11.13;100.00
7026;BME280;3554;42.132;24.786;2022-10-16T03:20:58;100157.13;;;11.09;100.00
7026;BME280;3554;42.132;24.786;2022-10-16T03:23:27;100157.97;;;11.09;100.00
7026;BME280;3554;42.132;24.786;2022-10-16T03:25:54;100163.25;;;11.08;100.00
7026;BME280;3554;42.132;24.786;2022-10-16T03:28:21;100160.78;;;10.74;100.00
7026;BME280;3554;42.132;24.786;2022-10-16T03:30:47;100164.81;;;10.86;100.00
7026;BME280;3554;42.132;24.786;2022-10-16T03:33:14;100162.00;;;10.92;100.00
7026;BME280;3554;42.132;24.786;2022-10-16T03:35:41;100161.19;;;10.90;100.00
7026;BME280;3554;42.132;24.786;2022-10-16T03:38:08;100155.13;;;10.89;100.00
7026;BME280;3554;42.132;24.786;2022-10-16T03:40:36;100169.19;;;10.85;100.00
7026;BME280;3554;42.132;24.786;2022-10-16T03:43:03;100162.63;;;10.70;100.00
7026;BME280;3554;42.132;24.786;2022-10-16T03:45:30;100166.16;;;10.69;100.00
7026;BME280;3554;42.132;24.786;2022-10-16T03:47:56;100173.03;;;10.72;100.00
7026;BME280;3554;42.132;24.786;2022-10-16T03:50:23;100174.91;;;10.68;100.00
7026;BME280;3554;42.132;24.786;2022-10-16T03:52:50;100172.28;;;10.68;100.00
7026;BME280;3554;42.132;24.786;2022-10-16T03:55:17;100175.81;;;10.67;100.00
7026;BME280;3554;42.132;24.786;2022-10-16T03:57:45;100182.63;;;10.73;100.00
7026;BME280;3554;42.132;24.786;2022-10-16T04:00:12;100178.28;;;10.72;100.00
7026;BME280;3554;42.132;24.786;2022-10-16T04:02:39;100174.16;;;10.63;100.00
7026;BME280;3554;42.132;24.786;2022-10-16T04:05:06;100179.31;;;10.66;100.00
7026;BME280;3554;42.132;24.786;2022-10-16T04:07:33;100176.69;;;10.66;100.00
7026;BME280;3554;42.132;24.786;2022-10-16T04:10:00;100180.44;;;10.58;100.00
7026;BME280;3554;42.132;24.786;2022-10-16T04:12:27;100181.66;;;10.46;100.00
7026;BME280;3554;42.132;24.786;2022-10-16T04:14:55;100180.63;;;10.52;100.00
7026;BME280;3554;42.132;24.786;2022-10-16T04:17:22;100179.91;;;10.45;100.00
7026;BME280;3554;42.132;24.786;2022-10-16T04:19:49;100173.78;;;10.46;100.00
7026;BME280;3554;42.132;24.786;2022-10-16T04:22:15;100178.25;;;10.43;100.00
7026;BME280;3554;42.132;24.786;2022-10-16T04:24:42;100176.56;;;10.40;100.00
7026;BME280;3554;42.132;24.786;2022-10-16T04:27:09;100174.91;;;10.36;100.00
7026;BME280;3554;42.132;24.786;2022-10-16T04:29:36;100181.94;;;10.36;100.00
7026;BME280;3554;42.132;24.786;2022-10-16T04:32:04;100183.59;;;10.38;100.00
7026;BME280;3554;42.132;24.786;2022-10-16T04:34:31;100184.78;;;10.27;100.00
7026;BME280;3554;42.132;24.786;2022-10-16T04:36:57;100186.59;;;10.25;100.00
7026;BME280;3554;42.132;24.786;2022-10-16T04:39:24;100185.81;;;10.21;100.00
7026;BME280;3554;42.132;24.786;2022-10-16T04:41:51;100181.41;;;10.22;100.00
7026;BME280;3554;42.132;24.786;2022-10-16T04:44:18;100178.19;;;10.12;100.00
7026;BME280;3554;42.132;24.786;2022-10-16T04:46:45;100178.00;;;10.20;100.00
7026;BME280;3554;42.132;24.786;2022-10-16T04:49:13;100184.84;;;10.24;100.00
7026;BME280;3554;42.132;24.786;2022-10-16T04:51:40;100189.31;;;10.20;100.00
7026;BME280;3554;42.132;24.786;2022-10-16T04:54:06;100192.66;;;10.25;100.00
7026;BME280;3554;42.132;24.786;2022-10-16T04:56:33;100197.88;;;10.27;100.00
7026;BME280;3554;42.132;24.786;2022-10-16T04:59:05;100198.75;;;10.26;100.00
7026;BME280;3554;42.132;24.786;2022-10-16T05:01:32;100200.53;;;10.24;100.00
7026;BME280;3554;42.132;24.786;2022-10-16T05:03:59;100205.09;;;10.17;100.00
7026;BME280;3554;42.132;24.786;2022-10-16T05:06:27;100212.75;;;10.25;100.00
7026;BME280;3554;42.132;24.786;2022-10-16T05:08:54;100215.41;;;10.23;100.00
7026;BME280;3554;42.132;24.786;2022-10-16T05:11:20;100212.78;;;10.23;100.00
7026;BME280;3554;42.132;24.786;2022-10-16T05:13:47;100217.03;;;10.27;100.00
7026;BME280;3554;42.132;24.786;2022-10-16T05:16:14;100211.09;;;10.21;100.00
7026;BME280;3554;42.132;24.786;2022-10-16T05:18:41;100229.28;;;10.25;100.00
7026;BME280;3554;42.132;24.786;2022-10-16T05:21:08;100227.44;;;10.30;100.00
7026;BME280;3554;42.132;24.786;2022-10-16T05:23:36;100221.00;;;10.42;100.00
7026;BME280;3554;42.132;24.786;2022-10-16T05:26:03;100224.28;;;10.50;100.00
7026;BME280;3554;42.132;24.786;2022-10-16T05:28:30;100239.22;;;10.77;100.00
7026;BME280;3554;42.132;24.786;2022-10-16T05:30:57;100230.16;;;10.90;100.00
7026;BME280;3554;42.132;24.786;2022-10-16T05:33:25;100234.78;;;11.11;100.00
7026;BME280;3554;42.132;24.786;2022-10-16T05:35:52;100253.25;;;11.37;100.00
7026;BME280;3554;42.132;24.786;2022-10-16T05:38:19;100261.28;;;11.59;100.00
7026;BME280;3554;42.132;24.786;2022-10-16T05:40:51;100263.59;;;11.71;100.00
7026;BME280;3554;42.132;24.786;2022-10-16T05:43:19;100266.16;;;11.72;100.00
7026;BME280;3554;42.132;24.786;2022-10-16T05:45:53;100257.25;;;11.78;100.00
7026;BME280;3554;42.132;24.786;2022-10-16T05:48:20;100278.94;;;11.83;100.00
7026;BME280;3554;42.132;24.786;2022-10-16T05:50:47;100286.59;;;11.89;100.00
7026;BME280;3554;42.132;24.786;2022-10-16T05:53:14;100287.81;;;12.07;100.00
7026;BME280;3554;42.132;24.786;2022-10-16T05:55:41;100285.31;;;12.30;100.00
7026;BME280;3554;42.132;24.786;2022-10-16T05:58:09;100287.34;;;12.46;100.00
7026;BME280;3554;42.132;24.786;2022-10-16T06:00:36;100288.41;;;12.41;100.00
7026;BME280;3554;42.132;24.786;2022-10-16T06:03:02;100297.22;;;12.40;100.00
7026;BME280;3554;42.132;24.786;2022-10-16T06:05:32;100291.53;;;12.52;100.00
7026;BME280;3554;42.132;24.786;2022-10-16T06:07:59;100309.03;;;12.53;100.00
7026;BME280;3554;42.132;24.786;2022-10-16T06:10:25;100290.47;;;12.57;100.00
7026;BME280;3554;42.132;24.786;2022-10-16T06:12:54;100309.25;;;12.71;100.00
7026;BME280;3554;42.132;24.786;2022-10-16T06:15:22;100310.38;;;12.89;100.00
7026;BME280;3554;42.132;24.786;2022-10-16T06:17:49;100307.19;;;12.81;100.00
7026;BME280;3554;42.132;24.786;2022-10-16T06:20:16;100313.69;;;12.96;100.00
7026;BME280;3554;42.132;24.786;2022-10-16T06:22:42;100320.53;;;13.00;100.00
7026;BME280;3554;42.132;24.786;2022-10-16T06:25:09;100320.34;;;13.06;100.00
7026;BME280;3554;42.132;24.786;2022-10-16T06:27:38;100328.34;;;13.03;100.00
7026;BME280;3554;42.132;24.786;2022-10-16T06:30:06;100334.66;;;13.22;100.00
7026;BME280;3554;42.132;24.786;2022-10-16T06:32:35;100334.63;;;13.46;100.00
7026;BME280;3554;42.132;24.786;2022-10-16T06:35:02;100349.38;;;13.73;100.00
7026;BME280;3554;42.132;24.786;2022-10-16T06:37:28;100348.91;;;13.85;100.00
7026;BME280;3554;42.132;24.786;2022-10-16T06:39:56;100348.16;;;14.05;100.00
7026;BME280;3554;42.132;24.786;2022-10-16T06:42:22;100349.00;;;13.61;100.00
7026;BME280;3554;42.132;24.786;2022-10-16T06:44:49;100347.03;;;12.93;100.00
7026;BME280;3554;42.132;24.786;2022-10-16T06:47:16;100353.06;;;12.45;100.00
7026;BME280;3554;42.132;24.786;2022-10-16T06:49:44;100350.19;;;12.25;100.00
7026;BME280;3554;42.132;24.786;2022-10-16T06:52:11;100344.72;;;12.84;100.00
7026;BME280;3554;42.132;24.786;2022-10-16T06:54:38;100353.38;;;13.13;100.00
7026;BME280;3554;42.132;24.786;2022-10-16T06:57:07;100358.97;;;13.51;100.00
7026;BME280;3554;42.132;24.786;2022-10-16T06:59:34;100356.34;;;13.74;100.00
7026;BME280;3554;42.132;24.786;2022-10-16T07:02:01;100364.56;;;13.90;100.00
7026;BME280;3554;42.132;24.786;2022-10-16T07:04:27;100370.75;;;14.11;100.00
7026;BME280;3554;42.132;24.786;2022-10-16T07:06:56;100363.81;;;14.31;100.00
7026;BME280;3554;42.132;24.786;2022-10-16T07:09:22;100368.78;;;14.39;100.00
7026;BME280;3554;42.132;24.786;2022-10-16T07:11:49;100370.91;;;14.51;100.00
7026;BME280;3554;42.132;24.786;2022-10-16T07:14:18;100369.13;;;14.51;100.00
7026;BME280;3554;42.132;24.786;2022-10-16T07:16:46;100378.03;;;14.49;100.00
7026;BME280;3554;42.132;24.786;2022-10-16T07:19:14;100346.00;;;14.38;100.00
7026;BME280;3554;42.132;24.786;2022-10-16T07:21:43;100386.78;;;14.71;100.00
7026;BME280;3554;42.132;24.786;2022-10-16T07:24:13;100385.94;;;14.90;100.00
7026;BME280;3554;42.132;24.786;2022-10-16T07:26:41;100390.94;;;14.76;100.00
7026;BME280;3554;42.132;24.786;2022-10-16T07:29:13;100393.25;;;14.84;100.00
7026;BME280;3554;42.132;24.786;2022-10-16T07:31:41;100380.78;;;14.46;100.00
7026;BME280;3554;42.132;24.786;2022-10-16T07:34:09;100386.25;;;14.83;100.00
7026;BME280;3554;42.132;24.786;2022-10-16T07:36:36;100379.22;;;14.83;100.00
7026;BME280;3554;42.132;24.786;2022-10-16T07:39:03;100379.25;;;15.03;100.00
7026;BME280;3554;42.132;24.786;2022-10-16T07:41:31;100381.69;;;15.28;100.00
7026;BME280;3554;42.132;24.786;2022-10-16T07:44:02;100362.28;;;15.29;100.00
7026;BME280;3554;42.132;24.786;2022-10-16T07:46:29;100383.69;;;15.43;100.00
7026;BME280;3554;42.132;24.786;2022-10-16T07:48:56;100384.53;;;15.44;100.00
7026;BME280;3554;42.132;24.786;2022-10-16T07:51:24;100369.00;;;14.96;100.00
7026;BME280;3554;42.132;24.786;2022-10-16T07:53:52;100380.28;;;14.99;100.00
7026;BME280;3554;42.132;24.786;2022-10-16T07:56:20;100383.34;;;15.31;100.00
7026;BME280;3554;42.132;24.786;2022-10-16T07:58:49;100375.00;;;15.41;100.00
7026;BME280;3554;42.132;24.786;2022-10-16T08:01:17;100380.34;;;15.38;100.00
7026;BME280;3554;42.132;24.786;2022-10-16T08:03:45;100383.44;;;15.68;100.00
7026;BME280;3554;42.132;24.786;2022-10-16T08:06:12;100388.97;;;15.82;100.00
7026;BME280;3554;42.132;24.786;2022-10-16T08:08:39;100374.31;;;15.75;100.00
7026;BME280;3554;42.132;24.786;2022-10-16T08:11:07;100378.44;;;15.62;100.00
7026;BME280;3554;42.132;24.786;2022-10-16T08:13:50;100386.91;;;16.07;100.00
7026;BME280;3554;42.132;24.786;2022-10-16T08:16:17;100386.25;;;16.21;100.00
7026;BME280;3554;42.132;24.786;2022-10-16T08:18:44;100355.22;;;16.07;100.00
7026;BME280;3554;42.132;24.786;2022-10-16T08:21:14;100388.19;;;16.36;100.00
7026;BME280;3554;42.132;24.786;2022-10-16T08:23:41;100386.94;;;16.43;100.00
7026;BME280;3554;42.132;24.786;2022-10-16T08:26:09;100344.97;;;16.18;100.00
7026;BME280;3554;42.132;24.786;2022-10-16T08:28:37;100384.88;;;16.49;100.00
7026;BME280;3554;42.132;24.786;2022-10-16T08:31:11;100377.13;;;16.63;100.00
7026;BME280;3554;42.132;24.786;2022-10-16T08:33:40;100390.03;;;16.52;100.00
7026;BME280;3554;42.132;24.786;2022-10-16T08:36:12;100391.88;;;16.50;100.00
7026;BME280;3554;42.132;24.786;2022-10-16T08:38:39;100383.13;;;16.67;100.00
7026;BME280;3554;42.132;24.786;2022-10-16T08:41:20;100374.00;;;16.91;100.00
7026;BME280;3554;42.132;24.786;2022-10-16T08:44:18;100374.00;;;16.91;100.00
7026;BME280;3554;42.132;24.786;2022-10-16T08:46:56;100384.50;;;17.09;100.00
7026;BME280;3554;42.132;24.786;2022-10-16T08:49:27;100379.34;;;17.24;100.00
7026;BME280;3554;42.132;24.786;2022-10-16T08:51:55;100387.28;;;17.41;100.00
7026;BME280;3554;42.132;24.786;2022-10-16T08:54:29;100375.50;;;17.46;100.00
7026;BME280;3554;42.132;24.786;2022-10-16T08:56:57;100370.19;;;17.46;100.00
7026;BME280;3554;42.132;24.786;2022-10-16T08:59:27;100380.59;;;17.34;100.00
7026;BME280;3554;42.132;24.786;2022-10-16T09:01:55;100380.94;;;17.43;100.00
7026;BME280;3554;42.132;24.786;2022-10-16T09:04:44;100387.84;;;17.80;100.00
7026;BME280;3554;42.132;24.786;2022-10-16T09:07:20;100385.53;;;17.74;100.00
7026;BME280;3554;42.132;24.786;2022-10-16T09:09:59;100376.19;;;17.67;100.00
7026;BME280;3554;42.132;24.786;2022-10-16T09:12:37;100390.06;;;17.87;100.00
7026;BME280;3554;42.132;24.786;2022-10-16T09:15:23;100355.06;;;17.50;100.00
7026;BME280;3554;42.132;24.786;2022-10-16T09:18:01;100381.22;;;17.71;100.00
7026;BME280;3554;42.132;24.786;2022-10-16T09:20:38;100394.66;;;17.84;100.00
7026;BME280;3554;42.132;24.786;2022-10-16T09:23:21;100391.63;;;18.07;100.00
7026;BME280;3554;42.132;24.786;2022-10-16T09:25:50;100386.59;;;17.87;100.00
7026;BME280;3554;42.132;24.786;2022-10-16T09:28:18;100380.94;;;17.93;100.00
7026;BME280;3554;42.132;24.786;2022-10-16T09:30:45;100385.63;;;17.88;100.00
7026;BME280;3554;42.132;24.786;2022-10-16T09:33:17;100380.94;;;18.08;100.00
7026;BME280;3554;42.132;24.786;2022-10-16T09:35:46;100361.56;;;18.08;100.00
7026;BME280;3554;42.132;24.786;2022-10-16T09:38:26;100370.78;;;18.01;100.00
7026;BME280;3554;42.132;24.786;2022-10-16T09:40:54;100382.34;;;18.15;100.00
7026;BME280;3554;42.132;24.786;2022-10-16T09:43:25;100363.03;;;18.13;100.00
7026;BME280;3554;42.132;24.786;2022-10-16T09:46:00;100368.44;;;17.79;100.00
7026;BME280;3554;42.132;24.786;2022-10-16T09:48:33;100365.97;;;17.76;100.00
7026;BME280;3554;42.132;24.786;2022-10-16T09:51:04;100328.72;;;17.64;100.00
7026;BME280;3554;42.132;24.786;2022-10-16T09:53:41;100364.16;;;17.77;100.00
7026;BME280;3554;42.132;24.786;2022-10-16T09:56:10;100361.28;;;17.97;100.00
7026;BME280;3554;42.132;24.786;2022-10-16T09:58:42;100343.09;;;18.22;100.00
7026;BME280;3554;42.132;24.786;2022-10-16T10:01:13;100349.84;;;18.43;100.00
7026;BME280;3554;42.132;24.786;2022-10-16T10:03:43;100355.84;;;18.47;100.00
7026;BME280;3554;42.132;24.786;2022-10-16T10:06:18;100347.69;;;18.65;100.00
7026;BME280;3554;42.132;24.786;2022-10-16T10:08:57;100338.16;;;18.77;100.00
7026;BME280;3554;42.132;24.786;2022-10-16T10:11:44;100349.56;;;18.93;99.20
7026;BME280;3554;42.132;24.786;2022-10-16T10:14:20;100336.06;;;18.97;97.29
7026;BME280;3554;42.132;24.786;2022-10-16T10:16:48;100342.03;;;19.01;92.95
7026;BME280;3554;42.132;24.786;2022-10-16T10:19:19;100339.44;;;18.99;92.12
7026;BME280;3554;42.132;24.786;2022-10-16T10:21:46;100330.13;;;18.92;92.77
7026;BME280;3554;42.132;24.786;2022-10-16T10:24:14;100294.84;;;18.76;94.19
7026;BME280;3554;42.132;24.786;2022-10-16T10:26:47;100333.97;;;19.02;93.27
7026;BME280;3554;42.132;24.786;2022-10-16T10:29:21;100338.28;;;18.60;93.42
7026;BME280;3554;42.132;24.786;2022-10-16T10:31:58;100332.56;;;18.36;94.95
7026;BME280;3554;42.132;24.786;2022-10-16T10:34:43;100331.94;;;18.62;97.96
7026;BME280;3554;42.132;24.786;2022-10-16T10:37:26;100315.38;;;18.88;94.06
7026;BME280;3554;42.132;24.786;2022-10-16T10:40:07;100324.31;;;19.15;92.72
7026;BME280;3554;42.132;24.786;2022-10-16T10:42:44;100323.09;;;19.21;89.90
7026;BME280;3554;42.132;24.786;2022-10-16T10:45:18;100308.56;;;18.98;89.81
7026;BME280;3554;42.132;24.786;2022-10-16T10:47:59;100313.84;;;18.84;89.42
7026;BME280;3554;42.132;24.786;2022-10-16T10:50:37;100321.69;;;18.86;89.67
7026;BME280;3554;42.132;24.786;2022-10-16T10:53:11;100305.72;;;19.01;88.09
7026;BME280;3554;42.132;24.786;2022-10-16T10:55:47;100313.75;;;18.56;88.73
7026;BME280;3554;42.132;24.786;2022-10-16T10:58:38;100305.50;;;18.61;91.55
7026;BME280;3554;42.132;24.786;2022-10-16T11:01:12;100302.81;;;18.31;90.80
7026;BME280;3554;42.132;24.786;2022-10-16T11:03:58;100310.91;;;18.59;88.88
7026;BME280;3554;42.132;24.786;2022-10-16T11:06:33;100299.19;;;18.32;88.79
7026;BME280;3554;42.132;24.786;2022-10-16T11:09:09;100305.56;;;18.14;92.00
7026;BME280;3554;42.132;24.786;2022-10-16T11:11:41;100305.19;;;18.51;90.37
7026;BME280;3554;42.132;24.786;2022-10-16T11:14:14;100308.88;;;18.33;89.51
7026;BME280;3554;42.132;24.786;2022-10-16T11:16:49;100301.13;;;18.46;90.07
7026;BME280;3554;42.132;24.786;2022-10-16T11:19:27;100299.56;;;18.26;87.22
7026;BME280;3554;42.132;24.786;2022-10-16T11:22:01;100290.41;;;18.32;90.91
7026;BME280;3554;42.132;24.786;2022-10-16T11:24:35;100275.44;;;18.46;86.88
7026;BME280;3554;42.132;24.786;2022-10-16T11:27:09;100304.09;;;18.24;85.69
7026;BME280;3554;42.132;24.786;2022-10-16T11:29:43;100287.06;;;18.28;87.02
7026;BME280;3554;42.132;24.786;2022-10-16T11:32:18;100294.56;;;18.51;88.35
7026;BME280;3554;42.132;24.786;2022-10-16T11:34:50;100280.28;;;18.83;86.62
7026;BME280;3554;42.132;24.786;2022-10-16T11:37:23;100286.19;;;18.88;86.73
7026;BME280;3554;42.132;24.786;2022-10-16T11:39:54;100272.28;;;18.69;87.13
7026;BME280;3554;42.132;24.786;2022-10-16T11:42:32;100283.69;;;18.85;82.43
7026;BME280;3554;42.132;24.786;2022-10-16T11:45:02;100283.41;;;18.76;82.81
7026;BME280;3554;42.132;24.786;2022-10-16T11:47:36;100287.69;;;19.06;85.38
7026;BME280;3554;42.132;24.786;2022-10-16T11:50:10;100281.06;;;18.99;82.71
7026;BME280;3554;42.132;24.786;2022-10-16T11:52:44;100293.88;;;19.07;81.67
7026;BME280;3554;42.132;24.786;2022-10-16T11:55:15;100289.63;;;19.04;81.16
7026;BME280;3554;42.132;24.786;2022-10-16T11:57:47;100294.75;;;19.07;81.38
7026;BME280;3554;42.132;24.786;2022-10-16T12:00:21;100289.22;;;19.10;79.90
7026;BME280;3554;42.132;24.786;2022-10-16T12:02:57;100269.31;;;19.17;79.34
7026;BME280;3554;42.132;24.786;2022-10-16T12:05:33;100294.03;;;19.34;80.29
7026;BME280;3554;42.132;24.786;2022-10-16T12:08:08;100282.53;;;19.33;79.03
7026;BME280;3554;42.132;24.786;2022-10-16T12:10:38;100287.00;;;19.33;78.39
7026;BME280;3554;42.132;24.786;2022-10-16T12:13:25;100296.13;;;19.43;78.34
7026;BME280;3554;42.132;24.786;2022-10-16T12:15:52;100283.25;;;19.21;80.04
7026;BME280;3554;42.132;24.786;2022-10-16T12:18:30;100287.16;;;19.30;77.76
7026;BME280;3554;42.132;24.786;2022-10-16T12:20:58;100285.66;;;19.11;77.85
7026;BME280;3554;42.132;24.786;2022-10-16T12:23:32;100272.06;;;18.88;80.63
7026;BME280;3554;42.132;24.786;2022-10-16T12:26:00;100283.44;;;19.04;81.98
7026;BME280;3554;42.132;24.786;2022-10-16T12:28:29;100284.88;;;19.09;83.02
7026;BME280;3554;42.132;24.786;2022-10-16T12:30:58;100281.28;;;19.24;81.63
7026;BME280;3554;42.132;24.786;2022-10-16T12:33:27;100296.13;;;19.43;81.28
7026;BME280;3554;42.132;24.786;2022-10-16T12:35:55;100247.72;;;19.23;80.08
7026;BME280;3554;42.132;24.786;2022-10-16T12:38:26;100286.25;;;19.59;78.35
7026;BME280;3554;42.132;24.786;2022-10-16T12:40:58;100242.63;;;19.35;76.37
7026;BME280;3554;42.132;24.786;2022-10-16T12:43:38;100295.06;;;19.45;79.33
7026;BME280;3554;42.132;24.786;2022-10-16T12:46:24;100284.34;;;19.61;79.40
7026;BME280;3554;42.132;24.786;2022-10-16T12:48:51;100286.13;;;19.60;78.65
7026;BME280;3554;42.132;24.786;2022-10-16T12:51:24;100294.50;;;19.54;75.90
7026;BME280;3554;42.132;24.786;2022-10-16T12:54:01;100295.53;;;19.52;76.28
7026;BME280;3554;42.132;24.786;2022-10-16T12:56:39;100294.31;;;19.57;74.38
7026;BME280;3554;42.132;24.786;2022-10-16T12:59:18;100299.53;;;19.45;74.72
7026;BME280;3554;42.132;24.786;2022-10-16T13:02:02;100299.31;;;19.48;75.63
7026;BME280;3554;42.132;24.786;2022-10-16T13:04:58;100294.22;;;19.45;75.92
7026;BME280;3554;42.132;24.786;2022-10-16T13:07:39;100301.25;;;19.60;76.21
7026;BME280;3554;42.132;24.786;2022-10-16T13:10:19;100296.59;;;19.63;76.42